createdAt,value
2018-10-01T00:01:17.910Z,76.00
2018-10-01T00:03:53.347Z,75.28
2018-10-01T00:06:27.643Z,75.38
2018-10-01T00:09:01.655Z,75.63
2018-10-01T00:11:36.779Z,75.99
2018-10-01T00:14:12.193Z,76.11
2018-10-01T00:16:44.636Z,76.09
2018-10-01T00:19:20.763Z,76.20
2018-10-01T00:21:57.728Z,76.20
2018-10-01T00:24:31.036Z,76.30
2018-10-01T00:27:07.606Z,75.95
2018-10-01T00:29:39.350Z,76.41
2018-10-01T00:32:10.962Z,76.45
2018-10-01T00:34:45.312Z,76.50
2018-10-01T00:37:15.615Z,77.43
2018-10-01T00:39:45.451Z,78.32
2018-10-01T00:42:15.627Z,77.51
2018-10-01T00:44:46.292Z,78.11
2018-10-01T00:47:16.156Z,78.40
2018-10-01T00:49:47.648Z,77.78
2018-10-01T00:52:17.884Z,77.89
2018-10-01T00:54:49.042Z,77.79
2018-10-01T00:57:18.928Z,78.05
2018-10-01T00:59:50.875Z,77.89
2018-10-01T01:02:21.261Z,78.14
2018-10-01T01:04:50.748Z,78.07
2018-10-01T01:07:20.208Z,78.33
2018-10-01T01:09:49.901Z,78.50
2018-10-01T01:12:20.451Z,78.23
2018-10-01T01:14:50.054Z,78.33
2018-10-01T01:17:21.332Z,78.16
2018-10-01T01:19:50.807Z,78.41
2018-10-01T01:22:20.347Z,78.65
2018-10-01T01:24:50.791Z,78.39
2018-10-01T01:27:20.560Z,78.64
2018-10-01T01:29:50.438Z,78.91
2018-10-01T01:32:20.686Z,79.38
2018-10-01T01:34:50.146Z,80.03
2018-10-01T01:37:35.777Z,79.49
2018-10-01T01:40:15.572Z,79.58
2018-10-01T01:42:45.869Z,79.16
2018-10-01T01:45:15.648Z,79.05
2018-10-01T01:47:46.135Z,79.38
2018-10-01T01:50:37.742Z,79.36
2018-10-01T01:53:11.923Z,79.62
2018-10-01T01:55:41.375Z,79.91
2018-10-01T01:58:12.734Z,80.15
2018-10-01T02:00:42.544Z,80.98
2018-10-01T02:03:12.852Z,81.39
2018-10-01T02:05:42.440Z,81.29
2018-10-01T02:08:11.905Z,81.90
2018-10-01T02:10:41.988Z,82.08
2018-10-01T02:13:11.829Z,82.77
2018-10-01T02:15:41.584Z,82.20
2018-10-01T02:18:11.230Z,82.80
2018-10-01T02:20:40.943Z,83.05
2018-10-01T02:23:10.362Z,83.15
2018-10-01T02:25:40.581Z,83.70
2018-10-01T02:28:10.756Z,84.00
2018-10-01T02:30:40.991Z,84.54
2018-10-01T02:33:10.293Z,84.58
2018-10-01T02:35:40.653Z,85.29
2018-10-01T02:38:10.407Z,85.41
2018-10-01T02:40:40.720Z,86.06
2018-10-01T02:43:10.950Z,86.42
2018-10-01T02:45:41.373Z,86.27
2018-10-01T02:48:11.257Z,85.96
2018-10-01T02:50:40.845Z,86.49
2018-10-01T02:53:15.824Z,87.11
2018-10-01T02:55:45.201Z,87.73
2018-10-01T02:58:14.753Z,87.55
2018-10-01T03:00:44.061Z,87.00
2018-10-01T03:03:14.873Z,86.51
2018-10-01T03:05:44.530Z,86.72
2018-10-01T03:08:14.468Z,85.98
2018-10-01T03:10:44.423Z,84.87
2018-10-01T03:13:14.640Z,83.82
2018-10-01T03:15:44.545Z,83.04
2018-10-01T03:18:14.210Z,82.50
2018-10-01T03:20:43.874Z,82.58
2018-10-01T03:23:13.342Z,81.85
2018-10-01T03:25:43.010Z,81.44
2018-10-01T03:28:12.441Z,81.18
2018-10-01T03:30:43.227Z,81.09
2018-10-01T03:33:12.550Z,80.63
2018-10-01T03:35:41.964Z,80.78
2018-10-01T03:38:11.446Z,81.07
2018-10-01T03:40:40.836Z,80.68
2018-10-01T03:43:10.170Z,80.81
2018-10-01T03:45:46.606Z,80.51
2018-10-01T03:48:16.171Z,80.90
2018-10-01T03:50:49.912Z,80.85
2018-10-01T03:53:19.507Z,80.92
2018-10-01T03:55:48.965Z,81.33
2018-10-01T03:58:18.474Z,81.56
2018-10-01T04:00:49.999Z,81.91
2018-10-01T04:03:19.448Z,82.13
2018-10-01T04:05:48.881Z,82.03
2018-10-01T04:08:18.620Z,82.15
2018-10-01T04:10:49.808Z,82.15
2018-10-01T04:13:19.238Z,82.83
2018-10-01T04:15:49.510Z,83.14
2018-10-01T04:18:19.301Z,83.70
2018-10-01T04:20:50.772Z,83.52
2018-10-01T04:23:21.161Z,83.40
2018-10-01T04:25:50.527Z,84.09
2018-10-01T04:28:20.150Z,83.97
2018-10-01T04:30:50.403Z,83.63
2018-10-01T04:33:20.352Z,84.19
2018-10-01T04:35:50.367Z,84.37
2018-10-01T04:38:21.421Z,84.53
2018-10-01T04:40:51.996Z,84.48
2018-10-01T04:43:22.678Z,85.00
2018-10-01T04:45:52.099Z,84.74
2018-10-01T04:48:22.798Z,84.69
2018-10-01T04:50:52.316Z,85.01
2018-10-01T04:53:22.092Z,84.74
2018-10-01T04:55:53.222Z,85.15
2018-10-01T04:58:23.987Z,84.32
2018-10-01T05:00:53.590Z,84.37
2018-10-01T05:03:23.221Z,84.34
2018-10-01T05:05:55.855Z,83.86
2018-10-01T05:08:26.966Z,84.68
2018-10-01T05:10:56.347Z,84.63
2018-10-01T05:13:26.236Z,84.41
2018-10-01T05:15:55.713Z,84.07
2018-10-01T05:18:28.405Z,83.93
2018-10-01T05:20:57.857Z,83.76
2018-10-01T05:23:27.389Z,83.76
2018-10-01T05:26:00.962Z,83.75
2018-10-01T05:28:30.942Z,83.78
2018-10-01T05:31:01.912Z,83.82
2018-10-01T05:33:31.382Z,83.65
2018-10-01T05:36:02.251Z,84.01
2018-10-01T05:38:32.496Z,83.66
2018-10-01T05:41:03.399Z,83.76
2018-10-01T05:43:32.973Z,83.88
2018-10-01T05:46:02.864Z,83.57
2018-10-01T05:48:32.297Z,83.29
2018-10-01T05:51:02.514Z,83.28
2018-10-01T05:53:32.466Z,83.29
2018-10-01T05:56:04.142Z,83.57
2018-10-01T05:58:34.198Z,83.72
2018-10-01T06:01:03.862Z,84.04
2018-10-01T06:03:33.522Z,83.43
2018-10-01T06:06:03.146Z,83.43
2018-10-01T06:08:33.048Z,83.74
2018-10-01T06:11:03.472Z,83.79
2018-10-01T06:13:33.382Z,83.51
2018-10-01T06:16:03.115Z,83.44
2018-10-01T06:18:32.598Z,83.33
2018-10-01T06:21:02.323Z,83.23
2018-10-01T06:23:32.132Z,83.62
2018-10-01T06:26:02.433Z,83.46
2018-10-01T06:28:31.887Z,83.61
2018-10-01T06:31:01.336Z,83.81
2018-10-01T06:33:31.068Z,83.21
2018-10-01T06:36:01.381Z,83.10
2018-10-01T06:38:31.282Z,83.53
2018-10-01T06:41:01.735Z,83.62
2018-10-01T06:43:33.997Z,83.96
2018-10-01T06:46:03.309Z,84.47
2018-10-01T06:48:33.192Z,84.15
2018-10-01T06:51:03.439Z,84.15
2018-10-01T06:53:33.313Z,85.09
2018-10-01T06:56:03.047Z,84.70
2018-10-01T06:58:32.843Z,84.40
2018-10-01T07:01:02.805Z,84.48
2018-10-01T07:03:33.396Z,84.55
2018-10-01T07:06:03.159Z,84.36
2018-10-01T07:08:32.516Z,84.68
2018-10-01T07:11:02.215Z,84.35
2018-10-01T07:13:31.518Z,84.37
2018-10-01T07:16:01.050Z,83.75
2018-10-01T07:18:30.414Z,83.84
2018-10-01T07:20:59.759Z,82.85
2018-10-01T07:23:29.283Z,81.85
2018-10-01T07:25:58.673Z,81.97
2018-10-01T07:28:28.071Z,81.44
2018-10-01T07:30:58.591Z,80.95
2018-10-01T07:33:28.111Z,80.36
2018-10-01T07:35:58.155Z,79.80
2018-10-01T07:38:28.677Z,79.76
2018-10-01T07:40:58.388Z,79.35
2018-10-01T07:43:28.233Z,79.08
2018-10-01T07:45:58.573Z,77.62
2018-10-01T07:48:27.953Z,77.79
2018-10-01T07:50:58.140Z,77.86
2018-10-01T07:53:27.813Z,78.19
2018-10-01T07:55:57.490Z,77.64
2018-10-01T07:58:27.941Z,77.76
2018-10-01T08:00:57.433Z,77.20
2018-10-01T08:03:30.681Z,77.36
2018-10-01T08:06:00.076Z,76.54
2018-10-01T08:08:29.411Z,76.51
2018-10-01T08:10:59.426Z,75.15
2018-10-01T08:13:29.067Z,75.16
2018-10-01T08:15:59.640Z,75.09
2018-10-01T08:18:29.054Z,74.56
2018-10-01T08:20:58.812Z,73.97
2018-10-01T08:23:31.895Z,74.06
2018-10-01T08:26:01.500Z,73.99
2018-10-01T08:28:30.958Z,74.07
2018-10-01T08:31:00.839Z,73.95
2018-10-01T08:33:30.401Z,73.73
2018-10-01T08:36:00.542Z,73.12
2018-10-01T08:38:30.035Z,72.64
2018-10-01T08:40:59.664Z,72.23
2018-10-01T08:43:29.986Z,71.97
2018-10-01T08:45:59.395Z,71.62
2018-10-01T08:48:29.890Z,71.77
2018-10-01T08:51:04.548Z,71.72
2018-10-01T08:54:37.120Z,71.27
2018-10-01T08:57:06.639Z,74.76
2018-10-01T08:59:36.078Z,73.37
2018-10-01T09:02:05.472Z,73.88
2018-10-01T09:04:34.879Z,73.76
2018-10-01T09:07:04.568Z,72.83
2018-10-01T09:09:34.195Z,71.95
2018-10-01T09:12:03.943Z,71.58
2018-10-01T09:14:40.191Z,71.99
2018-10-01T09:17:10.744Z,72.31
2018-10-01T09:19:40.242Z,71.72
2018-10-01T09:22:10.865Z,71.97
2018-10-01T09:24:41.398Z,70.82
2018-10-01T09:27:12.026Z,69.77
2018-10-01T09:29:41.539Z,69.90
2018-10-01T09:32:13.517Z,66.75
2018-10-01T09:34:43.136Z,66.78
2018-10-01T09:37:12.808Z,65.52
2018-10-01T09:39:42.194Z,63.84
2018-10-01T09:42:12.185Z,63.28
2018-10-01T09:44:42.240Z,62.22
2018-10-01T09:47:14.849Z,62.75
2018-10-01T09:49:44.540Z,63.27
2018-10-01T09:52:14.354Z,62.98
2018-10-01T09:54:43.893Z,63.44
2018-10-01T09:57:16.658Z,63.68
2018-10-01T09:59:46.668Z,63.41
2018-10-01T10:02:19.635Z,63.28
2018-10-01T10:04:50.411Z,62.52
2018-10-01T10:07:21.927Z,62.85
2018-10-01T10:09:51.710Z,62.41
2018-10-01T10:12:21.221Z,62.90
2018-10-01T10:14:50.961Z,62.01
2018-10-01T10:17:20.781Z,62.54
2018-10-01T10:19:50.554Z,62.68
2018-10-01T10:22:20.015Z,62.76
2018-10-01T10:24:50.306Z,61.86
2018-10-01T10:27:19.820Z,59.90
2018-10-01T10:29:50.080Z,59.31
2018-10-01T10:32:20.609Z,58.72
2018-10-01T10:34:50.168Z,57.78
2018-10-01T10:37:20.744Z,57.75
2018-10-01T10:39:50.303Z,56.97
2018-10-01T10:42:21.412Z,57.20
2018-10-01T10:44:58.418Z,57.22
2018-10-01T10:47:27.795Z,58.92
2018-10-01T10:49:58.462Z,60.48
2018-10-01T10:52:27.934Z,61.32
2018-10-01T10:54:59.530Z,61.49
2018-10-01T10:57:36.453Z,61.44
2018-10-01T11:00:06.610Z,61.05
2018-10-01T11:02:39.363Z,60.15
2018-10-01T11:05:08.723Z,58.59
2018-10-01T11:07:38.323Z,58.35
2018-10-01T11:10:08.794Z,58.31
2018-10-01T11:12:39.339Z,59.83
2018-10-01T11:15:11.077Z,66.47
2018-10-01T11:17:41.607Z,66.84
2018-10-01T11:20:13.437Z,67.42
2018-10-01T11:22:42.876Z,65.41
2018-10-01T11:25:12.543Z,65.04
2018-10-01T11:27:41.842Z,63.65
2018-10-01T11:30:11.270Z,64.36
2018-10-01T11:32:40.789Z,64.02
2018-10-01T11:35:10.293Z,64.16
2018-10-01T11:37:39.977Z,66.00
2018-10-01T11:40:09.825Z,67.22
2018-10-01T11:42:39.842Z,69.39
2018-10-01T11:45:16.644Z,72.49
2018-10-01T11:47:47.264Z,77.57
2018-10-01T11:50:16.640Z,78.56
2018-10-01T11:52:46.255Z,78.21
2018-10-01T11:55:16.645Z,77.47
2018-10-01T11:57:47.135Z,77.69
2018-10-01T12:00:17.809Z,78.65
2018-10-01T12:02:47.676Z,77.49
2018-10-01T12:05:17.685Z,77.30
2018-10-01T12:07:48.524Z,77.21
2018-10-01T12:10:18.015Z,76.40
2018-10-01T12:12:47.662Z,74.81
2018-10-01T12:15:17.266Z,75.84
2018-10-01T12:17:47.631Z,75.06
2018-10-01T12:20:17.647Z,73.19
2018-10-01T12:22:48.015Z,70.95
2018-10-01T12:25:17.634Z,71.51
2018-10-01T12:27:47.174Z,67.41
2018-10-01T12:30:16.474Z,65.84
2018-10-01T12:32:46.122Z,67.33
2018-10-01T12:35:15.927Z,65.01
2018-10-01T12:37:46.064Z,61.88
2018-10-01T12:40:16.521Z,61.64
2018-10-01T12:42:46.608Z,63.88
2018-10-01T12:45:16.018Z,62.47
2018-10-01T12:47:45.427Z,64.29
2018-10-01T12:50:15.916Z,66.15
2018-10-01T12:52:46.574Z,69.27
2018-10-01T12:55:16.853Z,81.21
2018-10-01T12:57:46.464Z,86.74
2018-10-01T13:00:16.194Z,91.70
2018-10-01T13:02:46.287Z,89.39
2018-10-01T13:05:16.891Z,95.40
2018-10-01T13:07:46.584Z,92.75
2018-10-01T13:10:16.776Z,87.28
2018-10-01T13:12:47.321Z,82.63
2018-10-01T13:15:18.418Z,81.12
2018-10-01T13:17:48.090Z,78.31
2018-10-01T13:20:18.941Z,74.84
2018-10-01T13:22:48.776Z,69.74
2018-10-01T13:25:19.102Z,68.06
2018-10-01T13:27:49.553Z,66.08
2018-10-01T13:30:20.173Z,60.85
2018-10-01T13:32:49.615Z,62.65
2018-10-01T13:35:19.856Z,60.90
2018-10-01T13:37:49.545Z,60.34
2018-10-01T13:40:19.770Z,58.70
2018-10-01T13:42:50.284Z,55.17
2018-10-01T13:45:19.853Z,56.39
2018-10-01T13:47:50.486Z,56.37
2018-10-01T13:50:20.767Z,53.32
2018-10-01T13:52:50.223Z,55.76
2018-10-01T13:55:20.696Z,57.36
2018-10-01T13:57:50.488Z,58.33
2018-10-01T14:00:20.568Z,57.83
2018-10-01T14:02:50.727Z,57.26
2018-10-01T14:05:22.156Z,57.96
2018-10-01T14:07:52.064Z,57.11
2018-10-01T14:10:21.718Z,53.87
2018-10-01T14:12:51.233Z,52.17
2018-10-01T14:15:21.872Z,53.41
2018-10-01T14:17:53.214Z,53.71
2018-10-01T14:20:22.919Z,53.87
2018-10-01T14:22:53.039Z,55.74
2018-10-01T14:25:23.617Z,56.35
2018-10-01T14:27:53.160Z,58.00
2018-10-01T14:30:22.877Z,58.56
2018-10-01T14:32:53.182Z,59.62
2018-10-01T14:35:22.728Z,60.81
2018-10-01T14:37:52.236Z,62.29
2018-10-01T14:40:21.826Z,63.43
2018-10-01T14:42:51.571Z,62.32
2018-10-01T14:45:21.161Z,61.81
2018-10-01T14:47:50.629Z,61.15
2018-10-01T14:50:20.691Z,61.42
2018-10-01T14:52:51.413Z,60.85
2018-10-01T14:55:20.718Z,59.33
2018-10-01T14:57:50.365Z,59.52
2018-10-01T15:00:21.219Z,59.15
2018-10-01T15:02:50.492Z,56.47
2018-10-01T15:05:19.928Z,55.45
2018-10-01T15:07:56.503Z,54.42
2018-10-01T15:10:26.688Z,56.79
2018-10-01T15:12:56.649Z,60.09
2018-10-01T15:15:26.467Z,61.94
2018-10-01T15:17:56.950Z,62.77
2018-10-01T15:20:26.454Z,60.77
2018-10-01T15:23:01.179Z,61.88
2018-10-01T15:25:31.233Z,61.02
2018-10-01T15:28:00.721Z,60.43
2018-10-01T15:30:32.172Z,59.14
2018-10-01T15:33:02.059Z,58.36
2018-10-01T15:35:31.782Z,56.70
2018-10-01T15:38:04.349Z,56.83
2018-10-01T15:40:34.174Z,54.02
2018-10-01T15:43:03.969Z,52.94
2018-10-01T15:45:33.948Z,53.57
2018-10-01T15:48:03.939Z,53.24
2018-10-01T15:50:33.555Z,53.76
2018-10-01T15:53:03.773Z,54.20
2018-10-01T15:55:33.623Z,53.91
2018-10-01T15:58:03.396Z,55.05
2018-10-01T16:00:32.871Z,55.52
2018-10-01T16:03:02.349Z,55.15
2018-10-01T16:05:32.628Z,55.30
2018-10-01T16:08:03.122Z,57.12
2018-10-01T16:10:33.303Z,59.08
2018-10-01T16:13:05.448Z,59.90
2018-10-01T16:15:34.861Z,61.51
2018-10-01T16:18:12.740Z,62.49
2018-10-01T16:20:42.360Z,64.42
2018-10-01T16:23:12.112Z,66.51
2018-10-01T16:25:41.968Z,67.45
2018-10-01T16:28:13.014Z,67.36
2018-10-01T16:30:42.731Z,67.53
2018-10-01T16:33:12.214Z,67.93
2018-10-01T16:35:48.637Z,67.94
2018-10-01T16:38:18.245Z,67.70
2018-10-01T16:40:48.023Z,67.79
2018-10-01T16:43:17.693Z,68.05
2018-10-01T16:45:47.417Z,67.29
2018-10-01T16:48:17.069Z,67.49
2018-10-01T16:50:46.432Z,67.06
2018-10-01T16:53:15.886Z,66.44
2018-10-01T16:55:45.569Z,67.52
2018-10-01T16:58:16.402Z,67.17
2018-10-01T17:00:45.779Z,67.35
2018-10-01T17:03:16.513Z,67.26
2018-10-01T17:05:46.090Z,67.66
2018-10-01T17:08:15.810Z,67.89
2018-10-01T17:10:45.427Z,68.28
2018-10-01T17:13:15.555Z,68.26
2018-10-01T17:15:45.384Z,68.99
2018-10-01T17:18:15.400Z,68.13
2018-10-01T17:20:45.575Z,68.07
2018-10-01T17:23:18.325Z,68.18
2018-10-01T17:25:49.200Z,67.57
2018-10-01T17:28:18.856Z,68.17
2018-10-01T17:30:48.466Z,68.04
2018-10-01T17:33:18.176Z,67.67
2018-10-01T17:35:47.695Z,67.03
2018-10-01T17:38:19.258Z,67.38
2018-10-01T17:40:50.068Z,67.18
2018-10-01T17:43:21.939Z,66.95
2018-10-01T17:45:51.450Z,66.14
2018-10-01T17:48:21.301Z,66.55
2018-10-01T17:50:51.068Z,66.68
2018-10-01T17:53:21.391Z,68.13
2018-10-01T17:55:52.138Z,68.79
2018-10-01T17:58:23.732Z,69.79
2018-10-01T18:00:55.077Z,70.68
2018-10-01T18:03:32.025Z,71.77
2018-10-01T18:06:02.802Z,72.79
2018-10-01T18:08:33.215Z,73.91
2018-10-01T18:11:03.067Z,74.61
2018-10-01T18:13:32.633Z,74.86
2018-10-01T18:16:02.319Z,76.20
2018-10-01T18:18:32.060Z,76.97
2018-10-01T18:21:02.114Z,76.89
2018-10-01T18:23:31.728Z,77.38
2018-10-01T18:26:02.170Z,77.31
2018-10-01T18:28:31.820Z,77.53
2018-10-01T18:31:01.494Z,78.43
2018-10-01T18:33:31.296Z,78.58
2018-10-01T18:36:08.841Z,78.64
2018-10-01T18:38:38.492Z,78.74
2018-10-01T18:41:09.197Z,78.79
2018-10-01T18:43:39.693Z,79.13
2018-10-01T18:46:09.125Z,78.90
2018-10-01T18:48:39.883Z,78.51
2018-10-01T18:51:10.675Z,79.27
2018-10-01T18:53:40.684Z,79.67
2018-10-01T18:56:11.873Z,79.32
2018-10-01T18:58:44.092Z,79.94
2018-10-01T19:01:13.637Z,79.39
2018-10-01T19:03:45.347Z,79.78
2018-10-01T19:06:15.207Z,80.14
2018-10-01T19:08:46.443Z,80.23
2018-10-01T19:11:16.777Z,79.33
2018-10-01T19:13:49.179Z,79.69
2018-10-01T19:16:19.166Z,78.97
2018-10-01T19:18:49.585Z,79.20
2018-10-01T19:21:19.464Z,79.49
2018-10-01T19:23:49.090Z,79.32
2018-10-01T19:26:19.148Z,79.06
2018-10-01T19:28:49.203Z,78.80
2018-10-01T19:31:18.826Z,79.08
2018-10-01T19:33:49.163Z,78.84
2018-10-01T19:36:18.621Z,78.54
2018-10-01T19:38:51.514Z,78.52
2018-10-01T19:41:21.037Z,78.78
2018-10-01T19:43:50.371Z,78.36
2018-10-01T19:46:20.261Z,78.04
2018-10-01T19:48:50.431Z,78.33
2018-10-01T19:51:20.265Z,77.88
2018-10-01T19:53:50.021Z,77.88
2018-10-01T19:56:19.787Z,77.71
2018-10-01T19:58:50.000Z,77.81
2018-10-01T20:01:20.296Z,77.30
2018-10-01T20:03:51.661Z,77.94
2018-10-01T20:06:21.486Z,78.23
2018-10-01T20:08:51.759Z,78.55
2018-10-01T20:11:21.618Z,79.13
2018-10-01T20:13:51.056Z,79.10
2018-10-01T20:16:21.162Z,79.03
2018-10-01T20:18:50.811Z,79.41
2018-10-01T20:21:21.841Z,79.95
2018-10-01T20:23:51.259Z,79.81
2018-10-01T20:26:20.859Z,79.69
2018-10-01T20:28:51.311Z,80.15
2018-10-01T20:31:21.459Z,79.53
2018-10-01T20:33:52.148Z,80.19
2018-10-01T20:36:21.980Z,81.46
2018-10-01T20:38:52.381Z,81.94
2018-10-01T20:41:21.935Z,81.81
2018-10-01T20:43:51.796Z,81.90
2018-10-01T20:46:21.658Z,83.17
2018-10-01T20:48:51.744Z,82.68
2018-10-01T20:51:21.422Z,82.65
2018-10-01T20:53:51.324Z,82.69
2018-10-01T20:56:21.188Z,82.52
2018-10-01T20:58:51.006Z,82.38
2018-10-01T21:01:21.638Z,82.17
2018-10-01T21:03:51.260Z,83.02
2018-10-01T21:06:21.845Z,83.04
2018-10-01T21:08:51.495Z,83.54
2018-10-01T21:11:21.231Z,83.66
2018-10-01T21:13:52.209Z,83.27
2018-10-01T21:16:22.676Z,83.17
2018-10-01T21:18:52.339Z,83.47
2018-10-01T21:21:22.081Z,82.87
2018-10-01T21:23:51.495Z,82.95
2018-10-01T21:26:21.262Z,82.72
2018-10-01T21:28:50.744Z,81.96
2018-10-01T21:31:20.403Z,81.63
2018-10-01T21:33:50.445Z,81.64
2018-10-01T21:36:19.988Z,82.01
2018-10-01T21:38:49.745Z,82.15
2018-10-01T21:41:19.946Z,82.02
2018-10-01T21:43:50.662Z,81.69
2018-10-01T21:46:21.348Z,82.30
2018-10-01T21:48:50.887Z,82.55
2018-10-01T21:51:21.311Z,82.75
2018-10-01T21:53:50.715Z,82.69
2018-10-01T21:56:20.333Z,82.78
2018-10-01T21:58:50.255Z,82.82
2018-10-01T22:01:25.103Z,82.54
2018-10-01T22:03:54.865Z,81.82
2018-10-01T22:06:24.746Z,82.38
2018-10-01T22:08:54.524Z,82.07
2018-10-01T22:11:24.231Z,82.22
2018-10-01T22:13:53.745Z,82.26
2018-10-01T22:16:24.689Z,82.97
2018-10-01T22:18:54.150Z,82.08
2018-10-01T22:21:24.723Z,81.70
2018-10-01T22:23:54.843Z,81.18
2018-10-01T22:26:24.718Z,80.29
2018-10-01T22:28:54.017Z,79.92
2018-10-01T22:31:24.192Z,80.19
2018-10-01T22:33:53.895Z,80.46
2018-10-01T22:36:23.537Z,80.78
2018-10-01T22:38:54.698Z,80.78
2018-10-01T22:41:24.554Z,80.55
2018-10-01T22:43:55.097Z,80.67
2018-10-01T22:46:25.294Z,80.83
2018-10-01T22:48:55.688Z,81.52
2018-10-01T22:51:26.252Z,81.65
2018-10-01T22:53:56.410Z,82.08
2018-10-01T22:56:25.810Z,81.25
2018-10-01T22:58:56.647Z,81.60
2018-10-01T23:01:26.084Z,81.47
2018-10-01T23:03:56.543Z,81.55
2018-10-01T23:06:26.819Z,81.85
2018-10-01T23:08:56.609Z,82.36
2018-10-01T23:11:26.397Z,81.61
2018-10-01T23:13:56.543Z,82.27
2018-10-01T23:16:26.077Z,82.47
2018-10-01T23:18:55.759Z,82.98
2018-10-01T23:21:25.246Z,83.19
2018-10-01T23:23:54.596Z,83.76
2018-10-01T23:26:24.128Z,83.60
2018-10-01T23:28:53.617Z,83.71
2018-10-01T23:31:24.006Z,83.71
2018-10-01T23:33:53.833Z,83.21
2018-10-01T23:36:23.972Z,83.35
2018-10-01T23:38:54.087Z,84.45
2018-10-01T23:41:25.855Z,84.89
2018-10-01T23:43:55.277Z,85.68
2018-10-01T23:46:25.089Z,85.96
2018-10-01T23:48:55.992Z,86.69
2018-10-01T23:51:25.803Z,85.81
2018-10-01T23:53:55.341Z,87.07
2018-10-01T23:56:25.537Z,87.59
2018-10-01T23:58:55.235Z,88.56
